Airfield :
LOGIN :

Register | Disclaimer

   EN    FR    IT 

 










Legend :    VFR   Marginal VFR   IFR   Intensive IFR   Very Intensive IFR
Visi :
Ceiling :
>= 8 km
>= 3000ft
5 to 8 km
1000 to 3000 ft
1500m to 5 km
500 to 1000 ft
800 to 1500m
200 to 500 ft
< 800m
< 200 ft
Symbols :   Thunderstorms  Fog  Heavy snow  Heavy precipitations  Wind > 20 kt
SIGMETs :     Misc.  Thunderstorms  Icing  Turbulence  Mountain Waves  Volcanic Ashes






- Airport Elevation : 209 ft
- IATA code : CLY


LFKC - Calvi

CURRENT METAR :
  • 160400Z AUTO 20013KT CAVOK 17/09 Q1015 TEMPO 20015G30KT

EXPIRED METARs :
  • 160330Z AUTO 20012KT CAVOK 17/10 Q1015 TEMPO 20015G30KT
  • 160300Z AUTO 20013KT 9999 FEW039 17/10 Q1016 TEMPO 20015G30KT
  • 160230Z AUTO 20012KT 180V240 9999 FEW043 17/10 Q1016
  • 160200Z AUTO 20013G23KT 9999 FEW039 17/10 Q1015
  • 160130Z AUTO 20014G25KT 9999 FEW044 17/11 Q1015

TAF TAF LFKC
Valid from the 16 at 03:00 until the 17 at 03:00 UTC


160200Z 1603/1703 20015KT CAVOK TX24/1612Z TN15/1603Z
TEMPO 1603/1615 20015G30KT
BECMG 1618/1620 18004KT
ATIS : +33 4 95 65 82 49



MET'MAP, your aeronautical weather chart ! - Copyright ORBIFLY December 2007 - Disclaimer

ORBIFLY MET'MAP TEAM :

Programming & Development : Alexandra Zaïnal
Concept & Development : Baudouin d'Aumeries
Co-Development & Prog : Marc-Olivier Méhu
Technical & hardware support : Manuel Goepfert

Contact : metmap@orbifly.com




SOURCES & CREDITS :

   NOAA